Time;durP1;ratioP1;P1;durP2;ratioP2;P2;SDS_P1;SDS_P2;PMS_P1;PMS_P2;Temp;Humidity;BMP_temperature;BMP_pressure;BME280_temperature;BME280_humidity;BME280_pressure;Samples;Min_cycle;Max_cycle;Signal;HPM_P1;HPM_P2
2019/09/19 00:01:17;;;;;;;11.1;2.5;;;;;;;12.68;65.07031;944.858;;;;
2019/09/19 00:03:39;;;;;;;8;2.4;;;;;;;12.75;64.9668;944.822;;;;
2019/09/19 00:06:08;;;;;;;9.4;2.5;;;;;;;12.69;65.79395;944.8205;;;;
2019/09/19 00:08:37;;;;;;;7.5;2.4;;;;;;;12.56;66.45117;944.7842;;;;
2019/09/19 00:11:01;;;;;;;7.3;2.1;;;;;;;12.52;66.9043;944.7686;;;;
2019/09/19 00:14:14;;;;;;;9.1;2.4;;;;;;;12.49;67.47363;944.7372;;;;
2019/09/19 00:16:39;;;;;;;10.2;2.7;;;;;;;12.6;66.85938;944.6945;;;;
2019/09/19 00:19:09;;;;;;;6.7;2.4;;;;;;;12.59;66.94824;944.6631;;;;
2019/09/19 00:21:38;;;;;;;8.8;2.2;;;;;;;12.81;67.3623;944.6476;;;;
2019/09/19 00:24:11;;;;;;;7.7;2.4;;;;;;;12.73;65.06641;944.6213;;;;
2019/09/19 00:26:46;;;;;;;8.5;2.4;;;;;;;12.68;65.51855;944.611;;;;
2019/09/19 00:28:51;;;;;;;10.7;2.6;;;;;;;12.82;65.63184;944.5881;;;;
2019/09/19 00:31:21;;;;;;;7.4;2.8;;;;;;;12.89;67.01855;944.592;;;;
2019/09/19 00:33:42;;;;;;;10.9;2.4;;;;;;;12.82;67.30664;944.6369;;;;
2019/09/19 00:36:15;;;;;;;7.6;2.6;;;;;;;12.82;67.21484;944.6025;;;;
2019/09/19 00:38:40;;;;;;;8.8;2.5;;;;;;;12.7;68.16016;944.624;;;;
2019/09/19 00:41:05;;;;;;;10.9;2.7;;;;;;;12.56;68.90625;944.5622;;;;
2019/09/19 00:43:28;;;;;;;9.3;2.4;;;;;;;12.51;69.02539;944.5552;;;;
2019/09/19 00:45:58;;;;;;;9.6;3;;;;;;;12.47;69.54492;944.5412;;;;
2019/09/19 00:48:25;;;;;;;6.8;2.5;;;;;;;12.61;69.37305;944.5468;;;;
2019/09/19 00:50:56;;;;;;;9.2;2.8;;;;;;;12.63;69.75488;944.5042;;;;
2019/09/19 00:53:20;;;;;;;9.9;2.4;;;;;;;12.69;68.65234;944.5464;;;;
2019/09/19 00:55:49;;;;;;;7.5;2.4;;;;;;;12.67;67.29395;944.499;;;;
2019/09/19 00:58:15;;;;;;;6.3;2.3;;;;;;;12.67;67.31836;944.5302;;;;
2019/09/19 01:00:47;;;;;;;7.7;2.4;;;;;;;12.63;66.26758;944.4771;;;;
2019/09/19 01:03:19;;;;;;;8.1;2.5;;;;;;;12.63;66.47363;944.3939;;;;
2019/09/19 01:05:44;;;;;;;8.5;2.3;;;;;;;12.64;66.60254;944.4277;;;;
2019/09/19 01:08:11;;;;;;;8.3;2.5;;;;;;;12.67;65.71191;944.3912;;;;
2019/09/19 01:10:46;;;;;;;8.6;2.4;;;;;;;12.7;66.32422;944.4011;;;;
2019/09/19 01:13:12;;;;;;;8.9;2.6;;;;;;;12.64;64.91602;944.3525;;;;
2019/09/19 01:15:36;;;;;;;8.7;2.2;;;;;;;12.6;66.44531;944.4036;;;;
2019/09/19 01:18:05;;;;;;;10.7;2.8;;;;;;;12.5;67.28027;944.4289;;;;
2019/09/19 01:20:29;;;;;;;7.8;2.4;;;;;;;12.43;67.5791;944.4113;;;;
2019/09/19 01:23:13;;;;;;;6.2;2.2;;;;;;;12.55;68.45703;944.3159;;;;
2019/09/19 01:25:38;;;;;;;7.8;2.4;;;;;;;12.58;68.15332;944.3843;;;;
2019/09/19 01:28:06;;;;;;;8.1;2.6;;;;;;;12.67;68.35059;944.364;;;;
2019/09/19 01:30:33;;;;;;;9.4;2.5;;;;;;;12.53;68.32813;944.3214;;;;
2019/09/19 01:33:01;;;;;;;8.1;2.5;;;;;;;12.45;68.30371;944.3557;;;;
2019/09/19 01:35:26;;;;;;;7.9;2.4;;;;;;;12.47;68.85742;944.3663;;;;
2019/09/19 01:37:51;;;;;;;8.9;2.7;;;;;;;12.41;69.97266;944.3405;;;;
2019/09/19 01:40:23;;;;;;;7.1;2.5;;;;;;;12.43;69.97656;944.345;;;;
2019/09/19 01:42:46;;;;;;;9.7;2.7;;;;;;;12.49;71.13281;944.3273;;;;
2019/09/19 01:45:17;;;;;;;6.7;2.4;;;;;;;12.47;70.77246;944.3191;;;;
2019/09/19 01:47:43;;;;;;;9.5;2.8;;;;;;;12.46;70.07324;944.3206;;;;
2019/09/19 01:50:14;;;;;;;8.7;2.9;;;;;;;12.43;69.90527;944.3265;;;;
2019/09/19 01:52:46;;;;;;;8;2.4;;;;;;;12.42;70.59277;944.3385;;;;
2019/09/19 01:57:39;;;;;;;10.2;2.9;;;;;;;12.41;70.5791;944.3068;;;;
2019/09/19 02:00:04;;;;;;;7.7;2.5;;;;;;;12.4;70.63574;944.3187;;;;
2019/09/19 02:02:29;;;;;;;9.1;2.7;;;;;;;12.42;70.82227;944.2897;;;;
2019/09/19 02:04:58;;;;;;;7.3;2.6;;;;;;;12.5;71.31641;944.3242;;;;
2019/09/19 02:07:25;;;;;;;7.3;2.9;;;;;;;12.54;71.82813;944.2735;;;;
2019/09/19 02:10:14;;;;;;;8.4;2.6;;;;;;;12.56;71.23633;944.4041;;;;
2019/09/19 02:12:38;;;;;;;8.9;2.9;;;;;;;12.45;71.91602;944.3764;;;;
2019/09/19 02:15:10;;;;;;;11.3;2.9;;;;;;;12.49;71.64844;944.3976;;;;
2019/09/19 02:17:44;;;;;;;9.2;2.8;;;;;;;12.5;71.47852;944.3563;;;;
2019/09/19 02:20:04;;;;;;;12.7;3.5;;;;;;;12.48;71.62305;944.3942;;;;
2019/09/19 02:22:32;;;;;;;6.8;2.6;;;;;;;12.5;70.9043;944.4336;;;;
2019/09/19 02:25:01;;;;;;;9.3;2.5;;;;;;;12.44;70.82715;944.4481;;;;
2019/09/19 02:27:33;;;;;;;9.1;2.8;;;;;;;12.45;69.7832;944.3947;;;;
2019/09/19 02:29:56;;;;;;;8.9;2.8;;;;;;;12.49;69.43457;944.4742;;;;
2019/09/19 02:32:24;;;;;;;8.8;2.6;;;;;;;12.52;70.11621;944.4514;;;;
2019/09/19 02:34:54;;;;;;;9.6;2.8;;;;;;;12.47;70.47559;944.5612;;;;
2019/09/19 02:37:17;;;;;;;10.9;2.7;;;;;;;12.43;71.19238;944.5367;;;;
2019/09/19 02:39:45;;;;;;;8;2.6;;;;;;;12.42;71.05176;944.551;;;;
2019/09/19 02:42:09;;;;;;;9.4;3;;;;;;;12.44;70.95117;944.5982;;;;
2019/09/19 02:44:36;;;;;;;7.8;2.9;;;;;;;12.44;71.65137;944.5911;;;;
2019/09/19 02:47:06;;;;;;;9.4;3.1;;;;;;;12.24;71.41211;944.5803;;;;
2019/09/19 02:49:31;;;;;;;9.1;3.2;;;;;;;12.09;71.97168;944.6465;;;;
2019/09/19 02:51:58;;;;;;;9.4;2.9;;;;;;;12.06;71.46289;944.6494;;;;
2019/09/19 02:57:09;;;;;;;10.9;2.8;;;;;;;11.86;71.37305;944.7037;;;;
2019/09/19 02:59:22;;;;;;;7.9;2.6;;;;;;;11.78;71.1416;944.7481;;;;
2019/09/19 03:01:49;;;;;;;9.1;2.5;;;;;;;11.71;70.85645;944.7464;;;;
2019/09/19 03:04:12;;;;;;;8.7;2.8;;;;;;;11.66;71.19141;944.7121;;;;
2019/09/19 03:06:37;;;;;;;7.2;2.6;;;;;;;11.78;70.13379;944.5762;;;;
2019/09/19 03:09:11;;;;;;;7.9;2.7;;;;;;;11.69;70.55469;944.687;;;;
2019/09/19 03:11:40;;;;;;;9.9;2.6;;;;;;;11.76;70.22168;944.6848;;;;
2019/09/19 03:14:03;;;;;;;12;3;;;;;;;11.62;69.54785;944.6613;;;;
2019/09/19 03:16:32;;;;;;;9.4;2.6;;;;;;;11.51;69.50684;944.6847;;;;
2019/09/19 03:19:14;;;;;;;11.7;2.7;;;;;;;11.6;69.04004;944.7403;;;;
2019/09/19 03:21:43;;;;;;;6.2;2.5;;;;;;;11.67;68.76563;944.7003;;;;
2019/09/19 03:24:09;;;;;;;7.5;2.2;;;;;;;11.62;68.81543;944.6755;;;;
2019/09/19 03:26:39;;;;;;;7.9;2.6;;;;;;;11.65;68.43066;944.7191;;;;
2019/09/19 03:29:06;;;;;;;9.8;2.7;;;;;;;11.82;67.86133;944.6616;;;;
2019/09/19 03:31:30;;;;;;;8.3;2.3;;;;;;;11.8;67.98535;944.6953;;;;
2019/09/19 03:33:58;;;;;;;11;2.6;;;;;;;11.68;68.7666;944.6063;;;;
2019/09/19 03:36:23;;;;;;;7.8;2.5;;;;;;;11.75;68.42383;944.6895;;;;
2019/09/19 03:38:50;;;;;;;8.2;2.4;;;;;;;11.71;68.01758;944.6395;;;;
2019/09/19 03:41:13;;;;;;;9.6;2.7;;;;;;;11.46;68.56152;944.6871;;;;
2019/09/19 03:46:16;;;;;;;7.7;2.4;;;;;;;11.52;68.15723;944.7678;;;;
2019/09/19 03:48:43;;;;;;;11.7;2.6;;;;;;;11.65;67.75586;944.7933;;;;
2019/09/19 03:51:09;;;;;;;7.2;2.2;;;;;;;11.67;68.08984;944.7217;;;;
2019/09/19 03:53:36;;;;;;;8.6;2.4;;;;;;;11.56;68.29102;944.7238;;;;
2019/09/19 03:56:03;;;;;;;7.3;2.3;;;;;;;11.5;68.17773;944.7117;;;;
2019/09/19 03:58:32;;;;;;;10.7;2.4;;;;;;;11.51;67.98633;944.7773;;;;
2019/09/19 04:02:29;;;;;;;10.2;2.6;;;;;;;11.61;67.91992;944.7787;;;;
2019/09/19 04:05:04;;;;;;;9.4;2.5;;;;;;;11.62;67.61426;944.7202;;;;
2019/09/19 04:07:28;;;;;;;9.5;2.4;;;;;;;11.51;67.70996;944.675;;;;
2019/09/19 04:10:00;;;;;;;9.2;2.5;;;;;;;11.48;68.40234;944.7535;;;;
2019/09/19 04:12:20;;;;;;;6.9;2.5;;;;;;;11.48;68.43848;944.803;;;;
2019/09/19 04:14:45;;;;;;;7.8;2.3;;;;;;;11.37;69.59766;944.8686;;;;
2019/09/19 04:17:14;;;;;;;8.8;2.5;;;;;;;11.49;68.77148;944.8862;;;;
2019/09/19 04:19:38;;;;;;;8.1;2.4;;;;;;;11.48;68.44922;944.8629;;;;
2019/09/19 04:22:05;;;;;;;8.5;2.3;;;;;;;11.59;68.31738;944.8431;;;;
2019/09/19 04:24:29;;;;;;;9;2.4;;;;;;;11.62;68.23047;944.7832;;;;
2019/09/19 04:26:57;;;;;;;9.1;2.5;;;;;;;11.65;69.78125;944.8475;;;;
2019/09/19 04:29:21;;;;;;;8.4;2.6;;;;;;;11.69;69.90234;944.872;;;;
2019/09/19 04:31:57;;;;;;;11.9;2.7;;;;;;;11.64;69.81445;944.916;;;;
2019/09/19 04:34:16;;;;;;;8.5;2.3;;;;;;;11.52;70.5625;944.9928;;;;
2019/09/19 04:36:41;;;;;;;12;3;;;;;;;11.57;70.91309;944.9775;;;;
2019/09/19 04:39:12;;;;;;;10.6;3;;;;;;;11.58;70.47949;944.9913;;;;
2019/09/19 04:41:43;;;;;;;8.7;2.7;;;;;;;11.63;71.24219;944.9852;;;;
2019/09/19 04:44:12;;;;;;;12.1;2.8;;;;;;;11.62;70.34961;945.0178;;;;
2019/09/19 04:46:41;;;;;;;11.6;2.6;;;;;;;11.67;69.30469;945.017;;;;
2019/09/19 04:49:05;;;;;;;7.4;2.4;;;;;;;11.69;70.08691;945.0779;;;;
2019/09/19 04:51:33;;;;;;;9.1;2.9;;;;;;;11.58;71.10938;945.1094;;;;
2019/09/19 04:54:02;;;;;;;10.8;2.8;;;;;;;11.62;70.92188;945.0792;;;;
2019/09/19 04:56:31;;;;;;;10.1;2.7;;;;;;;11.59;70.73242;945.0959;;;;
2019/09/19 04:58:52;;;;;;;9.1;2.9;;;;;;;11.57;71.2793;945.0853;;;;
2019/09/19 05:01:18;;;;;;;9.4;2.9;;;;;;;11.42;71.77051;945.145;;;;
2019/09/19 05:03:43;;;;;;;11.6;3.2;;;;;;;11.31;72.57422;945.1875;;;;
2019/09/19 05:06:14;;;;;;;9.9;2.9;;;;;;;11.31;73.62695;945.2137;;;;
2019/09/19 05:08:39;;;;;;;7.6;2.9;;;;;;;11.33;72.87305;945.2745;;;;
2019/09/19 05:11:05;;;;;;;7.7;2.7;;;;;;;11.34;71.33398;945.3147;;;;
2019/09/19 05:13:40;;;;;;;8.8;2.7;;;;;;;11.25;71.00879;945.3466;;;;
2019/09/19 05:16:06;;;;;;;10.1;2.7;;;;;;;11.19;70.56543;945.3644;;;;
2019/09/19 05:18:39;;;;;;;7.1;2.6;;;;;;;11.25;70.44922;945.3371;;;;
2019/09/19 05:21:09;;;;;;;13.6;3.2;;;;;;;11.26;70.33496;945.3491;;;;
2019/09/19 05:23:38;;;;;;;10.7;2.8;;;;;;;11.31;69.98926;945.3898;;;;
2019/09/19 05:26:22;;;;;;;8.1;2.8;;;;;;;11.33;69.78613;945.4078;;;;
2019/09/19 05:28:36;;;;;;;8.4;2.7;;;;;;;11.22;69.09473;945.4489;;;;
2019/09/19 05:31:02;;;;;;;8.4;2.4;;;;;;;11.02;69.45117;945.4625;;;;
2019/09/19 05:33:34;;;;;;;8.6;2.5;;;;;;;10.9;69.48926;945.4534;;;;
2019/09/19 05:36:14;;;;;;;7.4;2.6;;;;;;;11.07;70.21289;945.4847;;;;
2019/09/19 05:38:38;;;;;;;10.4;2.6;;;;;;;11.15;69.59766;945.5165;;;;
2019/09/19 05:41:05;;;;;;;9.1;2.6;;;;;;;10.86;69.50684;945.4853;;;;
2019/09/19 05:43:36;;;;;;;8.1;2.4;;;;;;;10.86;69.62109;945.4423;;;;
2019/09/19 05:46:02;;;;;;;9.8;2.7;;;;;;;10.85;69.65234;945.4277;;;;
2019/09/19 05:48:33;;;;;;;8.3;3;;;;;;;11;69.35547;945.4194;;;;
2019/09/19 05:51:02;;;;;;;11.9;3.1;;;;;;;11.08;69.58691;945.4515;;;;
2019/09/19 05:53:27;;;;;;;14.1;2.7;;;;;;;11.22;68.46484;945.3747;;;;
2019/09/19 05:55:49;;;;;;;10.4;2.8;;;;;;;11.22;68.87695;945.4306;;;;
2019/09/19 05:58:14;;;;;;;11.5;2.6;;;;;;;11.27;68.61133;945.4465;;;;
2019/09/19 06:00:46;;;;;;;9.4;2.7;;;;;;;11.45;68.94727;945.3878;;;;
2019/09/19 06:03:17;;;;;;;11.8;3.1;;;;;;;11.58;68.96875;945.5193;;;;
2019/09/19 06:05:39;;;;;;;11.5;3.1;;;;;;;11.65;69.03613;945.5184;;;;
2019/09/19 06:08:04;;;;;;;8.8;2.8;;;;;;;11.5;69.25293;945.5125;;;;
2019/09/19 06:10:28;;;;;;;6.8;2.6;;;;;;;11.38;69.1875;945.545;;;;
2019/09/19 06:12:55;;;;;;;8.5;2.5;;;;;;;11.36;69.33301;945.5207;;;;
2019/09/19 06:15:24;;;;;;;13.9;2.5;;;;;;;11.39;69.2373;945.4919;;;;
2019/09/19 06:17:58;;;;;;;9.5;2.6;;;;;;;11.62;68.81543;945.5722;;;;
2019/09/19 06:20:36;;;;;;;9;2.7;;;;;;;11.75;68.28613;945.5041;;;;
2019/09/19 06:22:51;;;;;;;11.5;2.7;;;;;;;11.91;68.76855;945.6063;;;;
2019/09/19 06:25:22;;;;;;;10.8;2.8;;;;;;;12.07;66.54883;945.574;;;;
2019/09/19 06:27:55;;;;;;;12.6;2.9;;;;;;;12.19;66.08496;945.6237;;;;
2019/09/19 06:30:23;;;;;;;13.2;2.6;;;;;;;12.27;65.58203;945.6619;;;;
2019/09/19 06:32:54;;;;;;;9.2;2.6;;;;;;;12.42;64.01074;945.7075;;;;
2019/09/19 06:35:18;;;;;;;10.7;2.5;;;;;;;12.43;64.41309;945.702;;;;
2019/09/19 06:37:48;;;;;;;9.6;2.8;;;;;;;12.54;62.9502;945.7371;;;;
2019/09/19 06:40:14;;;;;;;9.8;2.4;;;;;;;12.5;63.8623;945.7206;;;;
2019/09/19 06:42:41;;;;;;;10.3;2.7;;;;;;;12.59;63.55469;945.8081;;;;
2019/09/19 06:45:09;;;;;;;9.3;2.7;;;;;;;12.72;63.4248;945.7999;;;;
2019/09/19 06:48:21;;;;;;;8.9;2.8;;;;;;;12.89;62.71387;945.843;;;;
2019/09/19 06:51:14;;;;;;;12.5;2.9;;;;;;;13.17;61.69727;945.8787;;;;
2019/09/19 06:53:39;;;;;;;11.2;2.7;;;;;;;13.35;62.99707;945.8636;;;;
2019/09/19 06:56:08;;;;;;;9.7;3.1;;;;;;;13.6;61.08008;945.9163;;;;
2019/09/19 06:58:41;;;;;;;7.3;3;;;;;;;13.77;61.69043;945.8686;;;;
2019/09/19 07:01:07;;;;;;;11.2;3.4;;;;;;;13.88;61.32715;945.9444;;;;
2019/09/19 07:03:38;;;;;;;9.6;2.6;;;;;;;13.97;60.16406;945.9955;;;;
2019/09/19 07:06:08;;;;;;;5.8;2.2;;;;;;;13.89;60.45215;945.9116;;;;
2019/09/19 07:08:36;;;;;;;9.9;2.4;;;;;;;13.93;60.45898;946.0401;;;;
2019/09/19 07:11:16;;;;;;;9.5;2.7;;;;;;;13.91;59.77734;946.0422;;;;
2019/09/19 07:13:39;;;;;;;7.6;2.4;;;;;;;14;60.61816;946.0502;;;;
2019/09/19 07:16:12;;;;;;;9.8;2.5;;;;;;;14.24;60.69727;945.9855;;;;
2019/09/19 07:21:11;;;;;;;9.3;2.4;;;;;;;14.91;56.61621;946.0688;;;;
2019/09/19 07:23:45;;;;;;;12.2;2.9;;;;;;;15.28;57.08984;946.0976;;;;
2019/09/19 07:26:16;;;;;;;9.3;2.1;;;;;;;16.51;52.35449;946.1088;;;;
2019/09/19 07:28:47;;;;;;;9.1;2.4;;;;;;;17.31;49.96875;946.1012;;;;
2019/09/19 07:31:07;;;;;;;6.6;2.1;;;;;;;17.86;48.52148;946.0948;;;;
2019/09/19 07:33:40;;;;;;;7.6;2;;;;;;;18.05;49.10156;946.1067;;;;
2019/09/19 07:36:03;;;;;;;7;2.5;;;;;;;18.23;48.19043;946.113;;;;
2019/09/19 07:38:25;;;;;;;9.2;2.1;;;;;;;18.24;49.05273;946.1412;;;;
2019/09/19 07:41:14;;;;;;;38;3.5;;;;;;;17.99;47.80469;946.1174;;;;
2019/09/19 07:43:37;;;;;;;6.7;2.4;;;;;;;17.31;48.96094;946.139;;;;
2019/09/19 07:46:08;;;;;;;7.6;2.1;;;;;;;16.76;50.02246;946.1573;;;;
2019/09/19 07:48:31;;;;;;;9.3;2.5;;;;;;;16.62;50.6084;946.1653;;;;
2019/09/19 07:51:00;;;;;;;8.6;2.4;;;;;;;16.71;50.65332;946.1019;;;;
2019/09/19 07:53:25;;;;;;;7.2;2.5;;;;;;;16.74;50.8418;946.2274;;;;
2019/09/19 07:56:15;;;;;;;8.8;2.6;;;;;;;16.95;50.29883;946.2715;;;;
2019/09/19 07:58:39;;;;;;;9.2;2.8;;;;;;;16.77;50.92676;946.2643;;;;
2019/09/19 08:01:02;;;;;;;9.8;2.7;;;;;;;17.13;49.63477;946.2569;;;;
2019/09/19 08:03:28;;;;;;;6.8;2.4;;;;;;;16.59;50.5127;946.301;;;;
2019/09/19 08:06:10;;;;;;;9.3;2.4;;;;;;;16.35;52.69434;946.2605;;;;
2019/09/19 08:08:29;;;;;;;9.7;2.4;;;;;;;16.04;53.1543;946.383;;;;
2019/09/19 08:10:54;;;;;;;11.1;2.8;;;;;;;15.68;53.22656;946.3414;;;;
2019/09/19 08:13:20;;;;;;;7.5;2.4;;;;;;;15.35;54.49023;946.4646;;;;
2019/09/19 08:16:00;;;;;;;8.5;2.7;;;;;;;14.98;56.36035;946.4501;;;;
2019/09/19 08:18:16;;;;;;;9.1;2.5;;;;;;;14.44;57.74219;946.4059;;;;
2019/09/19 08:20:45;;;;;;;10.1;2.6;;;;;;;14.99;57.73438;946.4109;;;;
2019/09/19 08:23:20;;;;;;;8.5;2.4;;;;;;;15.46;55.12891;946.389;;;;
2019/09/19 08:25:42;;;;;;;9.7;2.5;;;;;;;16.4;52.92188;946.3666;;;;
2019/09/19 08:28:07;;;;;;;7.9;2.4;;;;;;;17.19;51.58984;946.3589;;;;
2019/09/19 08:30:39;;;;;;;10.3;2.5;;;;;;;17.89;49.93066;946.2944;;;;
2019/09/19 08:33:06;;;;;;;7.9;2.4;;;;;;;18.92;47.58008;946.3204;;;;
2019/09/19 08:35:33;;;;;;;7.5;2.7;;;;;;;19.92;43.42969;946.3315;;;;
2019/09/19 08:38:13;;;;;;;7.1;2.4;;;;;;;20.56;41.69336;946.303;;;;
2019/09/19 08:40:40;;;;;;;8.1;2.3;;;;;;;21.34;41.08887;946.2792;;;;
2019/09/19 08:43:13;;;;;;;10;2.3;;;;;;;22.13;38.20703;946.2805;;;;
2019/09/19 08:45:47;;;;;;;7.6;2.6;;;;;;;21.91;38.50391;946.2766;;;;
2019/09/19 08:48:18;;;;;;;7.2;2.1;;;;;;;21.52;40.2627;946.2775;;;;
2019/09/19 08:50:48;;;;;;;6.8;2.2;;;;;;;21.59;39.74121;946.3379;;;;
2019/09/19 08:53:20;;;;;;;9.1;2.2;;;;;;;22.05;38.45801;946.3391;;;;
2019/09/19 08:55:46;;;;;;;7.6;2.2;;;;;;;22.16;38.15137;946.3779;;;;
2019/09/19 08:58:10;;;;;;;7.3;2.2;;;;;;;22.09;38.2627;946.3535;;;;
2019/09/19 09:00:44;;;;;;;8.4;2.3;;;;;;;21.86;38.60547;946.3198;;;;
2019/09/19 09:03:07;;;;;;;8.2;2.4;;;;;;;21.52;39.67676;946.3367;;;;
2019/09/19 09:06:10;;;;;;;6.1;2;;;;;;;21.99;38.41797;946.3647;;;;
2019/09/19 09:08:41;;;;;;;8.4;1.8;;;;;;;21.29;38.93066;946.3126;;;;
2019/09/19 09:13:38;;;;;;;5.8;1.8;;;;;;;20.35;38.94238;946.2456;;;;
2019/09/19 09:16:12;;;;;;;7.2;2.2;;;;;;;20.55;41.01465;946.2245;;;;
2019/09/19 09:18:46;;;;;;;7.1;2.3;;;;;;;19.84;39.60742;946.2752;;;;
2019/09/19 09:21:15;;;;;;;9.6;2.2;;;;;;;19.33;41.2168;946.2302;;;;
2019/09/19 09:23:46;;;;;;;7.7;2;;;;;;;19.32;41.90332;946.1957;;;;
2019/09/19 09:26:08;;;;;;;7.9;1.9;;;;;;;18.75;42.02344;946.2475;;;;
2019/09/19 09:28:41;;;;;;;8.7;2.2;;;;;;;18.89;43.22363;946.2093;;;;
2019/09/19 09:31:05;;;;;;;7.4;1.9;;;;;;;18.86;43.44238;946.1951;;;;
2019/09/19 09:33:32;;;;;;;6.8;2.1;;;;;;;18.93;44.56641;946.1887;;;;
2019/09/19 09:36:21;;;;;;;8.7;2.4;;;;;;;18.76;41.91992;946.1627;;;;
2019/09/19 09:38:48;;;;;;;7.7;1.9;;;;;;;18.52;41.89746;946.0569;;;;
2019/09/19 09:41:20;;;;;;;6.6;1.9;;;;;;;18.39;43.39551;946.0408;;;;
2019/09/19 09:43:41;;;;;;;8.9;2;;;;;;;18.5;44.62695;946.0628;;;;
2019/09/19 09:46:08;;;;;;;8.4;1.9;;;;;;;18.57;42.95996;946.142;;;;
2019/09/19 09:48:29;;;;;;;9.9;2.1;;;;;;;18.52;43.78125;946.0561;;;;
2019/09/19 09:50:53;;;;;;;6.7;1.8;;;;;;;18.64;44.49121;946.0694;;;;
2019/09/19 09:53:23;;;;;;;8.2;2.2;;;;;;;18.46;44.98438;946.0131;;;;
2019/09/19 09:55:48;;;;;;;9.2;2.1;;;;;;;18.34;47.41211;946.03;;;;
2019/09/19 09:58:12;;;;;;;8.8;2.1;;;;;;;18.31;45.73535;946.0374;;;;
2019/09/19 10:00:38;;;;;;;9;2.2;;;;;;;18.31;45.30469;946.0416;;;;
2019/09/19 10:03:08;;;;;;;10.4;2.3;;;;;;;18.43;45.48047;946.0683;;;;
2019/09/19 10:05:29;;;;;;;10.7;2.4;;;;;;;18.4;47.69824;946.0658;;;;
2019/09/19 10:08:01;;;;;;;10.4;2.4;;;;;;;18.55;46.08691;946.0115;;;;
2019/09/19 10:10:29;;;;;;;8.2;2.1;;;;;;;18.58;44.92676;945.9548;;;;
2019/09/19 10:12:59;;;;;;;11.4;2.5;;;;;;;18.59;46.66016;946.0418;;;;
2019/09/19 10:15:26;;;;;;;8.2;2.3;;;;;;;18.5;48.37305;945.995;;;;
2019/09/19 10:17:55;;;;;;;10;2.5;;;;;;;18.24;47.99512;945.8606;;;;
2019/09/19 10:20:20;;;;;;;9.4;2.5;;;;;;;18.13;46.80859;945.8466;;;;
2019/09/19 10:22:50;;;;;;;9.8;2.6;;;;;;;18.26;47.00879;945.9967;;;;
2019/09/19 10:25:13;;;;;;;8.2;2.4;;;;;;;18.26;48.84473;945.9839;;;;
2019/09/19 10:27:38;;;;;;;14.2;2.5;;;;;;;18.35;47.21582;945.9122;;;;
2019/09/19 10:30:09;;;;;;;6.5;2.4;;;;;;;18.25;47.35742;945.9621;;;;
2019/09/19 10:32:41;;;;;;;8.1;2.3;;;;;;;18.66;46.92383;945.9846;;;;
2019/09/19 10:35:05;;;;;;;10.6;2.5;;;;;;;18.89;48.07715;945.8954;;;;
2019/09/19 10:37:31;;;;;;;11.3;2.4;;;;;;;19.2;46.56152;945.9254;;;;
2019/09/19 10:40:00;;;;;;;10.3;2.6;;;;;;;19.26;46.84863;945.9225;;;;
2019/09/19 10:42:24;;;;;;;9.4;2.5;;;;;;;19.3;46.29199;945.9551;;;;
2019/09/19 10:44:49;;;;;;;9.8;2.6;;;;;;;19.19;46.41016;945.8867;;;;
2019/09/19 10:47:17;;;;;;;8.5;2.5;;;;;;;19.1;46.08496;945.9387;;;;
2019/09/19 10:49:42;;;;;;;7.9;2.4;;;;;;;19.18;46.53711;945.9458;;;;
2019/09/19 10:52:07;;;;;;;7.5;2.3;;;;;;;19.23;47.05566;945.9592;;;;
2019/09/19 10:54:39;;;;;;;13.9;2.9;;;;;;;19.4;45.94238;945.9903;;;;
2019/09/19 10:57:00;;;;;;;12.5;2.8;;;;;;;19.37;45.11133;945.9398;;;;
2019/09/19 10:59:31;;;;;;;10.2;2.7;;;;;;;19.33;45.93457;945.9807;;;;
2019/09/19 11:01:57;;;;;;;9.3;2.6;;;;;;;19.7;43.55957;945.9155;;;;
2019/09/19 11:04:22;;;;;;;10;2.6;;;;;;;20.02;44.31543;945.8752;;;;
2019/09/19 11:06:53;;;;;;;10.1;2.5;;;;;;;20.76;42.48438;945.8441;;;;
2019/09/19 11:09:25;;;;;;;9.7;2.4;;;;;;;22.03;39.98047;945.8281;;;;
2019/09/19 11:12:00;;;;;;;10.2;2.3;;;;;;;23.26;37.2002;945.8264;;;;
2019/09/19 11:14:32;;;;;;;6.3;2.2;;;;;;;24.35;34.95703;945.7774;;;;
2019/09/19 11:16:56;;;;;;;10.3;2.3;;;;;;;25.19;32.56836;945.735;;;;
2019/09/19 11:19:28;;;;;;;8.1;2.4;;;;;;;26.06;30.91699;945.6653;;;;
2019/09/19 11:22:02;;;;;;;9.5;2.5;;;;;;;26.05;31.22363;945.6487;;;;
2019/09/19 11:24:32;;;;;;;9.6;2.4;;;;;;;26.64;30.63672;945.6403;;;;
2019/09/19 11:27:08;;;;;;;10;2.5;;;;;;;27.13;30.18457;945.6229;;;;
2019/09/19 11:29:31;;;;;;;8.1;2.1;;;;;;;27.57;29.03906;945.5948;;;;
2019/09/19 11:32:10;;;;;;;7.2;2.3;;;;;;;28.24;27.32324;945.5056;;;;
2019/09/19 11:34:38;;;;;;;7.7;2.5;;;;;;;28.34;27.49609;945.515;;;;
2019/09/19 11:37:12;;;;;;;7;2.4;;;;;;;28.86;26.30176;945.512;;;;
2019/09/19 11:39:32;;;;;;;7.8;2.3;;;;;;;28.57;26.91504;945.4639;;;;
2019/09/19 11:42:03;;;;;;;6.3;2;;;;;;;29.29;26.48145;945.4333;;;;
2019/09/19 11:44:31;;;;;;;7.5;2.1;;;;;;;29.16;26.34277;945.4395;;;;
2019/09/19 11:47:01;;;;;;;8.5;2.4;;;;;;;29.42;26.2041;945.3992;;;;
2019/09/19 11:49:42;;;;;;;7.1;2.5;;;;;;;29.29;25.49316;945.3625;;;;
2019/09/19 11:52:03;;;;;;;8.2;2.2;;;;;;;29.28;25.26563;945.3932;;;;
2019/09/19 11:54:36;;;;;;;7.4;2;;;;;;;30.01;24.60254;945.354;;;;
2019/09/19 11:57:01;;;;;;;9;2.5;;;;;;;29.76;25.68652;945.3234;;;;
2019/09/19 11:59:38;;;;;;;12.3;2.4;;;;;;;30;25.13867;945.3273;;;;
2019/09/19 12:02:09;;;;;;;8.1;2.3;;;;;;;29.98;25.24609;945.3577;;;;
2019/09/19 12:05:08;;;;;;;8.1;2.6;;;;;;;30.17;25.05273;945.3515;;;;
2019/09/19 12:07:05;;;;;;;6.9;2.1;;;;;;;29.85;25.27441;945.3486;;;;
2019/09/19 12:09:56;;;;;;;6.5;2.2;;;;;;;31.08;23.93164;945.3531;;;;
2019/09/19 12:12:33;;;;;;;8.4;2.2;;;;;;;31.43;23.26758;945.3056;;;;
2019/09/19 12:15:16;;;;;;;8.8;2.4;;;;;;;31.19;22.99219;945.3198;;;;
2019/09/19 12:17:46;;;;;;;7.8;2.1;;;;;;;31.85;22.3916;945.3539;;;;
2019/09/19 12:20:11;;;;;;;7.6;2.1;;;;;;;31.72;22.06152;945.29;;;;
2019/09/19 12:23:13;;;;;;;7.9;2.3;;;;;;;32.1;21.00098;945.2076;;;;
2019/09/19 12:25:57;;;;;;;7.8;2.2;;;;;;;31.67;22.98145;945.1638;;;;
2019/09/19 12:28:22;;;;;;;8.2;2.2;;;;;;;31.84;22.10254;945.1858;;;;
2019/09/19 12:30:53;;;;;;;8.2;2.1;;;;;;;32.44;22.52832;945.1278;;;;
2019/09/19 12:33:28;;;;;;;6.8;2;;;;;;;31.9;22.65723;945.1928;;;;
2019/09/19 12:35:46;;;;;;;7.8;2.1;;;;;;;32.3;21.57324;945.1519;;;;
2019/09/19 12:38:19;;;;;;;8.6;2.2;;;;;;;32.72;22.30176;945.1195;;;;
2019/09/19 12:40:49;;;;;;;6.4;1.9;;;;;;;32.64;21.67383;945.1783;;;;
2019/09/19 12:43:20;;;;;;;12.1;2.4;;;;;;;32.58;21.7793;945.1847;;;;
2019/09/19 12:46:04;;;;;;;6.3;2.1;;;;;;;31.97;21.88184;945.2486;;;;
2019/09/19 12:51:16;;;;;;;8.6;2.4;;;;;;;32.81;21.59863;945.3019;;;;
2019/09/19 12:54:11;;;;;;;6.7;2.1;;;;;;;33.54;20.21289;945.3275;;;;
2019/09/19 12:56:14;;;;;;;8.6;1.8;;;;;;;33.3;20.59961;945.2958;;;;
2019/09/19 12:58:53;;;;;;;6.8;1.8;;;;;;;32.34;20.7959;945.3198;;;;
2019/09/19 13:01:19;;;;;;;7.2;2.1;;;;;;;32.37;21.6377;945.2202;;;;
2019/09/19 13:03:52;;;;;;;8.4;2.2;;;;;;;31.57;21.69531;945.3614;;;;
2019/09/19 13:08:56;;;;;;;6.9;2.2;;;;;;;31.82;21.81445;945.3736;;;;
2019/09/19 13:11:29;;;;;;;5.5;2.1;;;;;;;31.51;21.1416;945.3158;;;;
2019/09/19 13:14:03;;;;;;;8.6;2.5;;;;;;;31.08;21.92285;945.3406;;;;
2019/09/19 13:16:36;;;;;;;9.4;2.1;;;;;;;31.03;21.72852;945.3533;;;;
2019/09/19 13:18:58;;;;;;;6.7;2;;;;;;;31.5;22.24219;945.3513;;;;
2019/09/19 13:21:32;;;;;;;7.1;2;;;;;;;31.39;21.2793;945.3635;;;;
2019/09/19 13:24:02;;;;;;;9;2;;;;;;;30.2;23.41992;945.3987;;;;
2019/09/19 13:26:31;;;;;;;8.3;2.3;;;;;;;31.1;22.18652;945.3851;;;;
2019/09/19 13:29:17;;;;;;;10.8;2.4;;;;;;;30.48;23.45801;945.3784;;;;
2019/09/19 13:31:42;;;;;;;10.9;2;;;;;;;29.68;24.3584;945.3475;;;;
2019/09/19 13:34:05;;;;;;;6.4;2.1;;;;;;;29.56;25.48438;945.3672;;;;
2019/09/19 13:36:40;;;;;;;8.2;2.3;;;;;;;29.14;24.41309;945.4069;;;;
2019/09/19 13:39:11;;;;;;;6.5;1.8;;;;;;;29.19;24.07031;945.3189;;;;
2019/09/19 13:41:41;;;;;;;16.7;2.6;;;;;;;28.48;24.79395;945.3304;;;;
2019/09/19 13:44:05;;;;;;;7.4;1.9;;;;;;;28.5;25.3291;945.3201;;;;
2019/09/19 13:46:37;;;;;;;10.6;2.1;;;;;;;28.03;25.74316;945.2947;;;;
2019/09/19 13:49:13;;;;;;;11.4;2.3;;;;;;;27.91;26.04395;945.3175;;;;
2019/09/19 13:51:39;;;;;;;10.2;2.3;;;;;;;28.63;24.6709;945.3192;;;;
2019/09/19 13:54:07;;;;;;;6.5;1.9;;;;;;;28.31;25.42578;945.3691;;;;
2019/09/19 13:56:32;;;;;;;7.3;1.9;;;;;;;28.82;25.39453;945.3511;;;;
2019/09/19 13:59:16;;;;;;;6.9;2;;;;;;;28.97;24.73633;945.3196;;;;
2019/09/19 14:01:47;;;;;;;8;2.2;;;;;;;28.46;25.32715;945.3544;;;;
2019/09/19 14:04:19;;;;;;;8.6;2.1;;;;;;;26.94;26.90137;945.3139;;;;
2019/09/19 14:06:41;;;;;;;11.8;2.5;;;;;;;27.06;26.93164;945.3546;;;;
2019/09/19 14:09:09;;;;;;;8.2;2.1;;;;;;;27.14;26.69922;945.4113;;;;
2019/09/19 14:11:44;;;;;;;11;2.4;;;;;;;26.46;27.9375;945.3318;;;;
2019/09/19 14:14:11;;;;;;;9.9;1.9;;;;;;;25.58;28.5918;945.4052;;;;
2019/09/19 14:16:36;;;;;;;7.5;2.2;;;;;;;24.47;30.52441;945.3928;;;;
2019/09/19 14:19:36;;;;;;;8.6;2.2;;;;;;;23.26;32.3457;945.4306;;;;
2019/09/19 14:22:01;;;;;;;11.7;2.6;;;;;;;22.35;33.2998;945.4608;;;;
2019/09/19 14:24:26;;;;;;;7.7;2.1;;;;;;;21.89;34.85938;945.3435;;;;
2019/09/19 14:26:59;;;;;;;11.1;2.3;;;;;;;21.53;35.55664;945.4272;;;;
2019/09/19 14:29:33;;;;;;;8.9;2;;;;;;;21.14;36.89355;945.5073;;;;
2019/09/19 14:32:05;;;;;;;9.8;2.4;;;;;;;20.64;36.96875;945.4562;;;;
2019/09/19 14:34:31;;;;;;;9.1;2.1;;;;;;;20.31;37.91113;945.4398;;;;
2019/09/19 14:37:00;;;;;;;9.9;2.2;;;;;;;20.43;38.63379;945.5339;;;;
2019/09/19 14:39:26;;;;;;;8.6;2.2;;;;;;;20.34;39.44336;945.4361;;;;
2019/09/19 14:42:07;;;;;;;11.1;2.2;;;;;;;20.1;38.81445;945.4391;;;;
2019/09/19 14:44:29;;;;;;;10.3;2.4;;;;;;;19.91;39.1123;945.4755;;;;
2019/09/19 14:47:00;;;;;;;9.5;2.3;;;;;;;19.75;38.67969;945.4299;;;;
2019/09/19 14:49:34;;;;;;;9.4;2.3;;;;;;;19.62;39.70605;945.4347;;;;
2019/09/19 14:52:01;;;;;;;10.5;2.2;;;;;;;19.5;40.05566;945.499;;;;